sensor_id;sensor_type;location;lat;lon;timestamp;temperature;humidity
46458;DHT22;32155;54.076;12.092;2022-09-01T00:03:30;13.30;99.90
46458;DHT22;32155;54.076;12.092;2022-09-01T00:07:17;13.20;99.90
46458;DHT22;32155;54.076;12.092;2022-09-01T00:13:54;13.20;99.90
46458;DHT22;32155;54.076;12.092;2022-09-01T00:17:13;13.20;99.90
46458;DHT22;32155;54.076;12.092;2022-09-01T00:34:27;13.10;99.90
46458;DHT22;32155;54.076;12.092;2022-09-01T00:40:32;13.00;99.90
46458;DHT22;32155;54.076;12.092;2022-09-01T00:51:10;13.00;99.90
46458;DHT22;32155;54.076;12.092;2022-09-01T00:57:28;12.90;99.90
46458;DHT22;32155;54.076;12.092;2022-09-01T01:07:14;12.80;99.90
46458;DHT22;32155;54.076;12.092;2022-09-01T01:10:03;12.70;99.90
46458;DHT22;32155;54.076;12.092;2022-09-01T01:12:49;12.70;99.90
46458;DHT22;32155;54.076;12.092;2022-09-01T01:15:20;12.70;99.90
46458;DHT22;32155;54.076;12.092;2022-09-01T01:18:13;12.70;99.90
46458;DHT22;32155;54.076;12.092;2022-09-01T01:20:42;12.80;99.90
46458;DHT22;32155;54.076;12.092;2022-09-01T01:27:48;12.70;99.90
46458;DHT22;32155;54.076;12.092;2022-09-01T01:36:15;12.60;99.90
46458;DHT22;32155;54.076;12.092;2022-09-01T01:38:50;12.60;99.90
46458;DHT22;32155;54.076;12.092;2022-09-01T01:41:26;12.70;99.90
46458;DHT22;32155;54.076;12.092;2022-09-01T01:44:14;12.60;99.90
46458;DHT22;32155;54.076;12.092;2022-09-01T01:47:01;12.60;99.90
46458;DHT22;32155;54.076;12.092;2022-09-01T01:49:36;12.60;99.90
46458;DHT22;32155;54.076;12.092;2022-09-01T01:55:31;12.60;99.90
46458;DHT22;32155;54.076;12.092;2022-09-01T02:01:14;12.50;99.90
46458;DHT22;32155;54.076;12.092;2022-09-01T02:03:47;12.50;99.90
46458;DHT22;32155;54.076;12.092;2022-09-01T02:07:09;12.50;99.90
46458;DHT22;32155;54.076;12.092;2022-09-01T02:09:53;12.50;99.90
46458;DHT22;32155;54.076;12.092;2022-09-01T02:15:46;12.50;99.90
46458;DHT22;32155;54.076;12.092;2022-09-01T02:31:44;12.40;99.90
46458;DHT22;32155;54.076;12.092;2022-09-01T02:35:04;12.40;99.90
46458;DHT22;32155;54.076;12.092;2022-09-01T02:40:51;12.30;99.90
46458;DHT22;32155;54.076;12.092;2022-09-01T03:04:13;12.30;99.90
46458;DHT22;32155;54.076;12.092;2022-09-01T03:17:59;12.20;99.90
46458;DHT22;32155;54.076;12.092;2022-09-01T03:21:12;12.20;99.90
46458;DHT22;32155;54.076;12.092;2022-09-01T03:27:49;12.20;99.90
46458;DHT22;32155;54.076;12.092;2022-09-01T03:48:57;12.10;99.90
46458;DHT22;32155;54.076;12.092;2022-09-01T04:06:27;12.00;99.90
46458;DHT22;32155;54.076;12.092;2022-09-01T04:19:48;12.00;99.90
46458;DHT22;32155;54.076;12.092;2022-09-01T04:30:24;12.00;99.90
46458;DHT22;32155;54.076;12.092;2022-09-01T04:33:51;12.10;99.90
46458;DHT22;32155;54.076;12.092;2022-09-01T04:37:06;12.10;99.90
46458;DHT22;32155;54.076;12.092;2022-09-01T04:40:05;12.20;99.90
46458;DHT22;32155;54.076;12.092;2022-09-01T04:42:34;12.20;99.90
46458;DHT22;32155;54.076;12.092;2022-09-01T04:45:00;12.30;99.90
46458;DHT22;32155;54.076;12.092;2022-09-01T04:47:26;12.30;99.90
46458;DHT22;32155;54.076;12.092;2022-09-01T04:49:58;12.30;99.90
46458;DHT22;32155;54.076;12.092;2022-09-01T04:52:28;12.40;99.90
46458;DHT22;32155;54.076;12.092;2022-09-01T04:54:53;12.50;99.90
46458;DHT22;32155;54.076;12.092;2022-09-01T04:57:22;12.50;99.90
46458;DHT22;32155;54.076;12.092;2022-09-01T04:59:54;12.60;99.90
46458;DHT22;32155;54.076;12.092;2022-09-01T05:02:21;12.60;99.90
46458;DHT22;32155;54.076;12.092;2022-09-01T05:04:51;12.70;99.90
46458;DHT22;32155;54.076;12.092;2022-09-01T05:07:18;12.70;99.90
46458;DHT22;32155;54.076;12.092;2022-09-01T05:09:44;12.80;99.90
46458;DHT22;32155;54.076;12.092;2022-09-01T05:12:10;12.80;99.90
46458;DHT22;32155;54.076;12.092;2022-09-01T05:14:41;12.80;99.90
46458;DHT22;32155;54.076;12.092;2022-09-01T05:17:12;13.00;99.90
46458;DHT22;32155;54.076;12.092;2022-09-01T05:19:40;13.10;99.90
46458;DHT22;32155;54.076;12.092;2022-09-01T05:22:08;13.20;99.90
46458;DHT22;32155;54.076;12.092;2022-09-01T05:24:35;13.40;99.90
46458;DHT22;32155;54.076;12.092;2022-09-01T05:27:06;13.70;99.90
46458;DHT22;32155;54.076;12.092;2022-09-01T05:29:32;14.20;99.90
46458;DHT22;32155;54.076;12.092;2022-09-01T05:32:02;14.60;99.90
46458;DHT22;32155;54.076;12.092;2022-09-01T05:34:33;15.10;99.90
46458;DHT22;32155;54.076;12.092;2022-09-01T05:37:05;15.40;99.90
46458;DHT22;32155;54.076;12.092;2022-09-01T05:39:36;15.80;99.90
46458;DHT22;32155;54.076;12.092;2022-09-01T05:42:04;16.30;99.90
46458;DHT22;32155;54.076;12.092;2022-09-01T05:44:32;16.80;99.90
46458;DHT22;32155;54.076;12.092;2022-09-01T05:46:58;17.30;99.90
46458;DHT22;32155;54.076;12.092;2022-09-01T05:49:24;17.80;99.90
46458;DHT22;32155;54.076;12.092;2022-09-01T05:51:53;18.10;99.90
46458;DHT22;32155;54.076;12.092;2022-09-01T05:54:23;18.50;99.90
46458;DHT22;32155;54.076;12.092;2022-09-01T05:56:52;18.90;99.90
46458;DHT22;32155;54.076;12.092;2022-09-01T05:59:19;19.10;99.90
46458;DHT22;32155;54.076;12.092;2022-09-01T06:01:45;19.40;99.90
46458;DHT22;32155;54.076;12.092;2022-09-01T06:04:13;19.80;99.90
46458;DHT22;32155;54.076;12.092;2022-09-01T06:06:42;20.20;99.90
46458;DHT22;32155;54.076;12.092;2022-09-01T06:09:12;20.40;99.90
46458;DHT22;32155;54.076;12.092;2022-09-01T06:11:39;20.70;99.90
46458;DHT22;32155;54.076;12.092;2022-09-01T06:14:06;21.00;99.90
46458;DHT22;32155;54.076;12.092;2022-09-01T06:16:35;21.30;99.90
46458;DHT22;32155;54.076;12.092;2022-09-01T06:19:02;21.40;99.90
46458;DHT22;32155;54.076;12.092;2022-09-01T06:21:28;21.80;99.90
46458;DHT22;32155;54.076;12.092;2022-09-01T06:23:54;22.10;99.90
46458;DHT22;32155;54.076;12.092;2022-09-01T06:26:31;22.40;99.90
46458;DHT22;32155;54.076;12.092;2022-09-01T06:29:03;22.80;99.90
46458;DHT22;32155;54.076;12.092;2022-09-01T06:31:33;23.20;99.90
46458;DHT22;32155;54.076;12.092;2022-09-01T06:34:03;23.50;99.90
46458;DHT22;32155;54.076;12.092;2022-09-01T06:36:35;23.80;99.90
46458;DHT22;32155;54.076;12.092;2022-09-01T06:39:02;24.20;99.90
46458;DHT22;32155;54.076;12.092;2022-09-01T06:41:28;24.40;99.90
46458;DHT22;32155;54.076;12.092;2022-09-01T06:43:56;24.90;99.90
46458;DHT22;32155;54.076;12.092;2022-09-01T06:46:22;25.20;99.90
46458;DHT22;32155;54.076;12.092;2022-09-01T06:48:52;25.60;99.90
46458;DHT22;32155;54.076;12.092;2022-09-01T06:51:20;25.90;99.90
46458;DHT22;32155;54.076;12.092;2022-09-01T06:53:51;26.10;99.90
46458;DHT22;32155;54.076;12.092;2022-09-01T06:56:21;26.30;99.90
46458;DHT22;32155;54.076;12.092;2022-09-01T06:58:52;26.40;99.90
46458;DHT22;32155;54.076;12.092;2022-09-01T07:01:19;26.70;99.90
46458;DHT22;32155;54.076;12.092;2022-09-01T07:03:54;27.10;99.90
46458;DHT22;32155;54.076;12.092;2022-09-01T07:06:24;27.50;99.90
46458;DHT22;32155;54.076;12.092;2022-09-01T07:08:57;27.40;99.90
46458;DHT22;32155;54.076;12.092;2022-09-01T07:11:29;27.90;99.90
46458;DHT22;32155;54.076;12.092;2022-09-01T07:14:00;28.30;99.90
46458;DHT22;32155;54.076;12.092;2022-09-01T07:16:29;28.20;99.90
46458;DHT22;32155;54.076;12.092;2022-09-01T07:18:58;28.30;99.90
46458;DHT22;32155;54.076;12.092;2022-09-01T07:21:27;28.50;99.90
46458;DHT22;32155;54.076;12.092;2022-09-01T07:23:53;29.00;99.90
46458;DHT22;32155;54.076;12.092;2022-09-01T07:26:19;29.40;99.90
46458;DHT22;32155;54.076;12.092;2022-09-01T07:28:48;29.90;99.90
46458;DHT22;32155;54.076;12.092;2022-09-01T07:31:19;30.30;99.90
46458;DHT22;32155;54.076;12.092;2022-09-01T07:33:52;30.90;99.90
46458;DHT22;32155;54.076;12.092;2022-09-01T07:36:20;31.20;99.90
46458;DHT22;32155;54.076;12.092;2022-09-01T07:38:46;31.30;99.90
46458;DHT22;32155;54.076;12.092;2022-09-01T07:41:21;31.70;99.90
46458;DHT22;32155;54.076;12.092;2022-09-01T07:43:52;31.90;99.90
46458;DHT22;32155;54.076;12.092;2022-09-01T07:46:20;31.90;99.90
46458;DHT22;32155;54.076;12.092;2022-09-01T07:48:47;32.20;99.90
46458;DHT22;32155;54.076;12.092;2022-09-01T07:51:15;32.80;99.50
46458;DHT22;32155;54.076;12.092;2022-09-01T07:53:45;33.00;97.10
46458;DHT22;32155;54.076;12.092;2022-09-01T07:56:14;33.30;95.90
46458;DHT22;32155;54.076;12.092;2022-09-01T07:58:44;32.70;95.70
46458;DHT22;32155;54.076;12.092;2022-09-01T08:01:15;29.20;97.40
46458;DHT22;32155;54.076;12.092;2022-09-01T08:04:36;30.90;98.30
46458;DHT22;32155;54.076;12.092;2022-09-01T08:06:48;31.80;95.30
46458;DHT22;32155;54.076;12.092;2022-09-01T08:09:36;31.30;96.30
46458;DHT22;32155;54.076;12.092;2022-09-01T08:12:04;33.20;94.10
46458;DHT22;32155;54.076;12.092;2022-09-01T08:14:30;34.00;90.90
46458;DHT22;32155;54.076;12.092;2022-09-01T08:16:58;34.50;89.30
46458;DHT22;32155;54.076;12.092;2022-09-01T08:19:25;34.40;85.30
46458;DHT22;32155;54.076;12.092;2022-09-01T08:21:55;35.50;83.70
46458;DHT22;32155;54.076;12.092;2022-09-01T08:24:27;35.10;80.40
46458;DHT22;32155;54.076;12.092;2022-09-01T08:26:52;32.30;83.40
46458;DHT22;32155;54.076;12.092;2022-09-01T08:29:18;29.90;88.20
46458;DHT22;32155;54.076;12.092;2022-09-01T08:31:45;32.00;90.40
46458;DHT22;32155;54.076;12.092;2022-09-01T08:34:13;34.20;84.20
46458;DHT22;32155;54.076;12.092;2022-09-01T08:36:41;34.80;77.50
46458;DHT22;32155;54.076;12.092;2022-09-01T08:39:07;35.50;78.50
46458;DHT22;32155;54.076;12.092;2022-09-01T08:41:55;35.10;75.80
46458;DHT22;32155;54.076;12.092;2022-09-01T08:47:02;35.10;72.40
46458;DHT22;32155;54.076;12.092;2022-09-01T08:49:33;34.30;73.20
46458;DHT22;32155;54.076;12.092;2022-09-01T08:52:30;31.90;77.20
46458;DHT22;32155;54.076;12.092;2022-09-01T08:57:35;28.50;86.60
46458;DHT22;32155;54.076;12.092;2022-09-01T09:00:04;27.30;90.00
46458;DHT22;32155;54.076;12.092;2022-09-01T09:08:44;24.50;95.80
46458;DHT22;32155;54.076;12.092;2022-09-01T09:12:10;23.90;97.40
46458;DHT22;32155;54.076;12.092;2022-09-01T09:18:06;23.20;99.90
46458;DHT22;32155;54.076;12.092;2022-09-01T09:20:49;23.20;99.90
46458;DHT22;32155;54.076;12.092;2022-09-01T09:23:49;23.30;99.90
46458;DHT22;32155;54.076;12.092;2022-09-01T09:26:38;25.90;98.90
46458;DHT22;32155;54.076;12.092;2022-09-01T09:29:05;25.30;98.60
46458;DHT22;32155;54.076;12.092;2022-09-01T09:31:39;27.20;99.20
46458;DHT22;32155;54.076;12.092;2022-09-01T09:34:33;31.80;93.30
46458;DHT22;32155;54.076;12.092;2022-09-01T09:37:22;35.40;81.70
46458;DHT22;32155;54.076;12.092;2022-09-01T09:56:15;34.50;70.30
46458;DHT22;32155;54.076;12.092;2022-09-01T09:58:45;35.70;67.50
46458;DHT22;32155;54.076;12.092;2022-09-01T10:01:29;38.10;63.50
46458;DHT22;32155;54.076;12.092;2022-09-01T10:07:29;40.10;56.40
46458;DHT22;32155;54.076;12.092;2022-09-01T10:09:58;35.60;60.10
46458;DHT22;32155;54.076;12.092;2022-09-01T10:12:25;32.30;66.10
46458;DHT22;32155;54.076;12.092;2022-09-01T10:15:05;30.70;69.90
46458;DHT22;32155;54.076;12.092;2022-09-01T10:17:41;29.20;73.40
46458;DHT22;32155;54.076;12.092;2022-09-01T10:20:15;30.60;76.20
46458;DHT22;32155;54.076;12.092;2022-09-01T10:22:42;34.50;68.50
46458;DHT22;32155;54.076;12.092;2022-09-01T10:25:13;37.50;60.60
46458;DHT22;32155;54.076;12.092;2022-09-01T10:27:42;39.40;56.40
46458;DHT22;32155;54.076;12.092;2022-09-01T10:30:12;40.80;52.60
46458;DHT22;32155;54.076;12.092;2022-09-01T10:35:42;42.30;45.90
46458;DHT22;32155;54.076;12.092;2022-09-01T10:38:21;43.20;43.70
46458;DHT22;32155;54.076;12.092;2022-09-01T10:40:51;43.40;44.00
46458;DHT22;32155;54.076;12.092;2022-09-01T10:43:49;43.70;44.70
46458;DHT22;32155;54.076;12.092;2022-09-01T12:08:50;41.80;41.30
46458;DHT22;32155;54.076;12.092;2022-09-01T12:11:28;43.60;40.40
46458;DHT22;32155;54.076;12.092;2022-09-01T12:14:54;43.90;39.70
46458;DHT22;32155;54.076;12.092;2022-09-01T12:17:43;43.70;39.10
46458;DHT22;32155;54.076;12.092;2022-09-01T12:22:58;39.30;44.30
46458;DHT22;32155;54.076;12.092;2022-09-01T12:29:02;43.20;40.80
46458;DHT22;32155;54.076;12.092;2022-09-01T13:10:43;43.20;39.10
46458;DHT22;32155;54.076;12.092;2022-09-01T13:16:37;41.40;40.30
46458;DHT22;32155;54.076;12.092;2022-09-01T13:39:29;40.20;42.00
46458;DHT22;32155;54.076;12.092;2022-09-01T13:45:09;40.50;42.20
46458;DHT22;32155;54.076;12.092;2022-09-01T13:51:08;40.30;42.70
46458;DHT22;32155;54.076;12.092;2022-09-01T13:54:12;39.60;42.30
46458;DHT22;32155;54.076;12.092;2022-09-01T13:56:43;39.30;42.50
46458;DHT22;32155;54.076;12.092;2022-09-01T14:09:22;38.80;41.50
46458;DHT22;32155;54.076;12.092;2022-09-01T14:11:57;38.00;41.90
46458;DHT22;32155;54.076;12.092;2022-09-01T14:21:04;37.50;41.80
46458;DHT22;32155;54.076;12.092;2022-09-01T14:23:55;36.80;43.60
46458;DHT22;32155;54.076;12.092;2022-09-01T14:39:59;35.40;44.80
46458;DHT22;32155;54.076;12.092;2022-09-01T14:46:12;33.50;46.90
46458;DHT22;32155;54.076;12.092;2022-09-01T14:49:22;33.00;46.50
46458;DHT22;32155;54.076;12.092;2022-09-01T14:55:59;33.30;46.40
46458;DHT22;32155;54.076;12.092;2022-09-01T14:59:04;31.70;48.80
46458;DHT22;32155;54.076;12.092;2022-09-01T15:01:55;29.80;52.00
46458;DHT22;32155;54.076;12.092;2022-09-01T15:05:02;28.50;54.30
46458;DHT22;32155;54.076;12.092;2022-09-01T15:08:05;27.20;55.90
46458;DHT22;32155;54.076;12.092;2022-09-01T15:14:32;25.50;59.00
46458;DHT22;32155;54.076;12.092;2022-09-01T15:17:16;25.30;60.10
46458;DHT22;32155;54.076;12.092;2022-09-01T15:19:51;25.00;60.00
46458;DHT22;32155;54.076;12.092;2022-09-01T15:22:54;24.60;61.10
46458;DHT22;32155;54.076;12.092;2022-09-01T15:26:12;24.00;61.80
46458;DHT22;32155;54.076;12.092;2022-09-01T15:36:15;23.80;63.80
46458;DHT22;32155;54.076;12.092;2022-09-01T15:38:57;23.60;62.80
46458;DHT22;32155;54.076;12.092;2022-09-01T15:41:52;23.70;64.50
46458;DHT22;32155;54.076;12.092;2022-09-01T15:44:39;23.50;63.30
46458;DHT22;32155;54.076;12.092;2022-09-01T15:57:44;22.90;64.10
46458;DHT22;32155;54.076;12.092;2022-09-01T16:07:23;22.40;69.10
46458;DHT22;32155;54.076;12.092;2022-09-01T16:10:36;22.00;70.30
46458;DHT22;32155;54.076;12.092;2022-09-01T16:13:23;21.60;71.10
46458;DHT22;32155;54.076;12.092;2022-09-01T16:22:53;21.90;71.10
46458;DHT22;32155;54.076;12.092;2022-09-01T16:29:00;21.70;70.80
46458;DHT22;32155;54.076;12.092;2022-09-01T16:35:35;21.40;73.10
46458;DHT22;32155;54.076;12.092;2022-09-01T16:44:44;20.90;73.90
46458;DHT22;32155;54.076;12.092;2022-09-01T16:53:05;20.30;77.30
46458;DHT22;32155;54.076;12.092;2022-09-01T16:58:25;20.30;77.70
46458;DHT22;32155;54.076;12.092;2022-09-01T17:06:30;19.90;80.00
46458;DHT22;32155;54.076;12.092;2022-09-01T17:09:09;19.80;80.60
46458;DHT22;32155;54.076;12.092;2022-09-01T17:11:44;19.80;81.40
46458;DHT22;32155;54.076;12.092;2022-09-01T17:14:16;19.70;82.30
46458;DHT22;32155;54.076;12.092;2022-09-01T17:16:48;19.60;83.20
46458;DHT22;32155;54.076;12.092;2022-09-01T17:19:18;19.30;84.70
46458;DHT22;32155;54.076;12.092;2022-09-01T17:21:58;19.20;84.80
46458;DHT22;32155;54.076;12.092;2022-09-01T17:24:38;19.20;85.60
46458;DHT22;32155;54.076;12.092;2022-09-01T17:27:30;19.10;86.60
46458;DHT22;32155;54.076;12.092;2022-09-01T17:29:54;18.90;86.70
46458;DHT22;32155;54.076;12.092;2022-09-01T17:42:58;18.40;89.10
46458;DHT22;32155;54.076;12.092;2022-09-01T17:48:31;18.30;90.20
46458;DHT22;32155;54.076;12.092;2022-09-01T17:54:00;18.10;90.70
46458;DHT22;32155;54.076;12.092;2022-09-01T18:05:07;17.90;91.90
46458;DHT22;32155;54.076;12.092;2022-09-01T18:13:13;17.60;93.30
46458;DHT22;32155;54.076;12.092;2022-09-01T18:15:52;17.40;93.90
46458;DHT22;32155;54.076;12.092;2022-09-01T18:21:04;17.20;95.30
46458;DHT22;32155;54.076;12.092;2022-09-01T18:23:35;17.20;96.00
46458;DHT22;32155;54.076;12.092;2022-09-01T18:26:25;17.10;96.70
46458;DHT22;32155;54.076;12.092;2022-09-01T18:28:54;17.00;97.40
46458;DHT22;32155;54.076;12.092;2022-09-01T18:31:24;17.00;98.20
46458;DHT22;32155;54.076;12.092;2022-09-01T18:34:32;17.00;98.80
46458;DHT22;32155;54.076;12.092;2022-09-01T18:43:20;16.70;99.90
46458;DHT22;32155;54.076;12.092;2022-09-01T18:54:02;16.50;99.90
46458;DHT22;32155;54.076;12.092;2022-09-01T19:13:44;16.00;99.90
46458;DHT22;32155;54.076;12.092;2022-09-01T19:21:28;15.80;99.90
46458;DHT22;32155;54.076;12.092;2022-09-01T19:24:12;15.80;99.90
46458;DHT22;32155;54.076;12.092;2022-09-01T19:26:45;15.80;99.90
46458;DHT22;32155;54.076;12.092;2022-09-01T19:29:26;15.70;99.90
46458;DHT22;32155;54.076;12.092;2022-09-01T19:31:56;15.60;99.90
46458;DHT22;32155;54.076;12.092;2022-09-01T19:34:37;15.50;99.90
46458;DHT22;32155;54.076;12.092;2022-09-01T19:37:04;15.50;99.90
46458;DHT22;32155;54.076;12.092;2022-09-01T19:39:37;15.50;99.90
46458;DHT22;32155;54.076;12.092;2022-09-01T19:42:12;15.40;99.90
46458;DHT22;32155;54.076;12.092;2022-09-01T19:45:23;15.30;99.90
46458;DHT22;32155;54.076;12.092;2022-09-01T19:50:34;15.20;99.90
46458;DHT22;32155;54.076;12.092;2022-09-01T19:53:16;15.10;99.90
46458;DHT22;32155;54.076;12.092;2022-09-01T19:58:27;15.00;99.90
46458;DHT22;32155;54.076;12.092;2022-09-01T20:01:00;14.90;99.90
46458;DHT22;32155;54.076;12.092;2022-09-01T20:03:40;14.90;99.90
46458;DHT22;32155;54.076;12.092;2022-09-01T20:06:18;14.80;99.90
46458;DHT22;32155;54.076;12.092;2022-09-01T20:11:41;14.60;99.90
46458;DHT22;32155;54.076;12.092;2022-09-01T20:16:44;14.50;99.90
46458;DHT22;32155;54.076;12.092;2022-09-01T20:19:39;14.40;99.90
46458;DHT22;32155;54.076;12.092;2022-09-01T20:30:26;14.20;99.90
46458;DHT22;32155;54.076;12.092;2022-09-01T20:33:42;14.10;99.90
46458;DHT22;32155;54.076;12.092;2022-09-01T20:36:11;14.10;99.90
46458;DHT22;32155;54.076;12.092;2022-09-01T20:38:52;14.10;99.90
46458;DHT22;32155;54.076;12.092;2022-09-01T20:42:05;14.00;99.90
46458;DHT22;32155;54.076;12.092;2022-09-01T20:44:54;14.00;99.90
46458;DHT22;32155;54.076;12.092;2022-09-01T20:47:27;13.90;99.90
46458;DHT22;32155;54.076;12.092;2022-09-01T20:49:53;13.90;99.90
46458;DHT22;32155;54.076;12.092;2022-09-01T20:55:21;13.80;99.90
46458;DHT22;32155;54.076;12.092;2022-09-01T21:00:52;13.70;99.90
46458;DHT22;32155;54.076;12.092;2022-09-01T21:09:11;13.60;99.90
46458;DHT22;32155;54.076;12.092;2022-09-01T21:18:25;13.40;99.90
46458;DHT22;32155;54.076;12.092;2022-09-01T21:23:07;13.30;99.90
46458;DHT22;32155;54.076;12.092;2022-09-01T21:25:33;13.30;99.90
46458;DHT22;32155;54.076;12.092;2022-09-01T21:28:01;13.30;99.90
46458;DHT22;32155;54.076;12.092;2022-09-01T21:30:32;13.30;99.90
46458;DHT22;32155;54.076;12.092;2022-09-01T21:32:58;13.20;99.90
46458;DHT22;32155;54.076;12.092;2022-09-01T21:35:24;13.20;99.90
46458;DHT22;32155;54.076;12.092;2022-09-01T21:37:52;13.20;99.90
46458;DHT22;32155;54.076;12.092;2022-09-01T21:40:20;13.20;99.90
46458;DHT22;32155;54.076;12.092;2022-09-01T21:42:53;13.10;99.90
46458;DHT22;32155;54.076;12.092;2022-09-01T21:45:24;13.10;99.90
46458;DHT22;32155;54.076;12.092;2022-09-01T21:47:50;13.10;99.90
46458;DHT22;32155;54.076;12.092;2022-09-01T21:50:19;13.10;99.90
46458;DHT22;32155;54.076;12.092;2022-09-01T21:52:46;13.10;99.90
46458;DHT22;32155;54.076;12.092;2022-09-01T21:55:12;13.10;99.90
46458;DHT22;32155;54.076;12.092;2022-09-01T21:57:38;13.10;99.90
46458;DHT22;32155;54.076;12.092;2022-09-01T22:00:15;13.10;99.90
46458;DHT22;32155;54.076;12.092;2022-09-01T22:02:41;13.00;99.90
46458;DHT22;32155;54.076;12.092;2022-09-01T22:05:11;13.00;99.90
46458;DHT22;32155;54.076;12.092;2022-09-01T22:07:39;13.00;99.90
46458;DHT22;32155;54.076;12.092;2022-09-01T22:10:14;13.00;99.90
46458;DHT22;32155;54.076;12.092;2022-09-01T22:12:43;12.90;99.90
46458;DHT22;32155;54.076;12.092;2022-09-01T22:15:12;12.90;99.90
46458;DHT22;32155;54.076;12.092;2022-09-01T22:17:43;12.90;99.90
46458;DHT22;32155;54.076;12.092;2022-09-01T22:20:11;12.90;99.90
46458;DHT22;32155;54.076;12.092;2022-09-01T22:22:37;12.90;99.90
46458;DHT22;32155;54.076;12.092;2022-09-01T22:25:04;12.90;99.90
46458;DHT22;32155;54.076;12.092;2022-09-01T22:27:30;12.80;99.90
46458;DHT22;32155;54.076;12.092;2022-09-01T22:29:58;12.70;99.90
46458;DHT22;32155;54.076;12.092;2022-09-01T22:32:23;12.70;99.90
46458;DHT22;32155;54.076;12.092;2022-09-01T22:34:51;12.80;99.90
46458;DHT22;32155;54.076;12.092;2022-09-01T22:37:17;12.70;99.90
46458;DHT22;32155;54.076;12.092;2022-09-01T22:39:45;12.70;99.90
46458;DHT22;32155;54.076;12.092;2022-09-01T22:42:11;12.70;99.90
46458;DHT22;32155;54.076;12.092;2022-09-01T22:44:36;12.70;99.90
46458;DHT22;32155;54.076;12.092;2022-09-01T22:47:02;12.60;99.90
46458;DHT22;32155;54.076;12.092;2022-09-01T22:49:30;12.60;99.90
46458;DHT22;32155;54.076;12.092;2022-09-01T22:51:57;12.60;99.90
46458;DHT22;32155;54.076;12.092;2022-09-01T22:54:22;12.50;99.90
46458;DHT22;32155;54.076;12.092;2022-09-01T22:56:48;12.50;99.90
46458;DHT22;32155;54.076;12.092;2022-09-01T22:59:14;12.50;99.90
46458;DHT22;32155;54.076;12.092;2022-09-01T23:01:42;12.50;99.90
46458;DHT22;32155;54.076;12.092;2022-09-01T23:04:10;12.50;99.90
46458;DHT22;32155;54.076;12.092;2022-09-01T23:06:45;12.50;99.90
46458;DHT22;32155;54.076;12.092;2022-09-01T23:09:18;12.50;99.90
46458;DHT22;32155;54.076;12.092;2022-09-01T23:11:47;12.50;99.90
46458;DHT22;32155;54.076;12.092;2022-09-01T23:14:13;12.50;99.90
46458;DHT22;32155;54.076;12.092;2022-09-01T23:16:39;12.40;99.90
46458;DHT22;32155;54.076;12.092;2022-09-01T23:19:05;12.40;99.90
46458;DHT22;32155;54.076;12.092;2022-09-01T23:21:34;12.30;99.90
46458;DHT22;32155;54.076;12.092;2022-09-01T23:24:00;12.30;99.90
46458;DHT22;32155;54.076;12.092;2022-09-01T23:26:27;12.30;99.90
46458;DHT22;32155;54.076;12.092;2022-09-01T23:28:54;12.30;99.90
46458;DHT22;32155;54.076;12.092;2022-09-01T23:31:22;12.30;99.90
46458;DHT22;32155;54.076;12.092;2022-09-01T23:33:49;12.30;99.90
46458;DHT22;32155;54.076;12.092;2022-09-01T23:36:17;12.30;99.90
46458;DHT22;32155;54.076;12.092;2022-09-01T23:38:44;12.20;99.90
46458;DHT22;32155;54.076;12.092;2022-09-01T23:41:16;12.20;99.90
46458;DHT22;32155;54.076;12.092;2022-09-01T23:43:42;12.10;99.90
46458;DHT22;32155;54.076;12.092;2022-09-01T23:46:40;12.10;99.90
46458;DHT22;32155;54.076;12.092;2022-09-01T23:49:06;12.10;99.90
46458;DHT22;32155;54.076;12.092;2022-09-01T23:51:32;12.10;99.90
46458;DHT22;32155;54.076;12.092;2022-09-01T23:53:58;12.10;99.90
46458;DHT22;32155;54.076;12.092;2022-09-01T23:56:25;12.10;99.90
46458;DHT22;32155;54.076;12.092;2022-09-01T23:58:51;12.10;99.90
